Time;durP1;ratioP1;P1;durP2;ratioP2;P2;SDS_P1;SDS_P2;PMS_P1;PMS_P2;Temp;Humidity;BMP_temperature;BMP_pressure;BME280_temperature;BME280_humidity;BME280_pressure;Samples;Min_cycle;Max_cycle;Signal;HPM_P1;HPM_P2
2022/03/29 00:00:58;;;;;;;50.10;21.00;;;;;;;-141.50;100.00;63355.56;5083913;28;20079;-78
2022/03/29 00:03:25;;;;;;;41.10;20.13;;;;;;;-141.50;100.00;63355.56;5091878;28;20138;-78
2022/03/29 00:05:52;;;;;;;52.42;20.83;;;;;;;-141.50;100.00;63355.56;5110209;28;20138;-79
2022/03/29 00:08:18;;;;;;;49.00;20.80;;;;;;;-141.50;100.00;63355.56;5110955;28;20460;-78
2022/03/29 00:10:45;;;;;;;48.28;20.48;;;;;;;-141.50;100.00;63355.56;5085773;28;20131;-78
2022/03/29 00:13:12;;;;;;;43.45;19.83;;;;;;;-141.50;100.00;63355.56;5102981;28;20048;-78
2022/03/29 00:15:38;;;;;;;40.95;19.17;;;;;;;-141.50;100.00;63355.56;5091647;28;20440;-78
2022/03/29 00:18:05;;;;;;;43.88;17.98;;;;;;;-141.50;100.00;63355.56;5111336;28;20122;-77
2022/03/29 00:20:32;;;;;;;41.00;18.92;;;;;;;-141.50;100.00;63355.56;5110158;28;20065;-78
2022/03/29 00:22:58;;;;;;;41.20;17.92;;;;;;;-141.50;100.00;63355.56;5112458;28;20086;-79
2022/03/29 00:25:25;;;;;;;39.78;18.13;;;;;;;-141.50;100.00;63355.56;5101221;28;20519;-79
2022/03/29 00:27:51;;;;;;;38.22;17.33;;;;;;;-141.50;100.00;63355.56;5099497;28;20105;-76
2022/03/29 00:30:18;;;;;;;39.08;16.58;;;;;;;-141.50;100.00;63355.56;5095062;28;20076;-78
2022/03/29 00:32:45;;;;;;;37.38;17.33;;;;;;;-141.50;100.00;63355.56;5072179;28;20056;-79
2022/03/29 00:35:12;;;;;;;37.78;16.58;;;;;;;-141.50;100.00;63355.56;5090770;28;20115;-77
2022/03/29 00:37:42;;;;;;;42.05;17.40;;;;;;;-141.50;100.00;63355.56;5091186;28;20085;-76
2022/03/29 00:40:11;;;;;;;36.75;16.05;;;;;;;-141.50;100.00;63355.56;5087419;28;20048;-77
2022/03/29 00:42:38;;;;;;;35.58;15.65;;;;;;;-141.50;100.00;63355.56;5091088;28;20116;-79
2022/03/29 00:45:05;;;;;;;37.00;15.05;;;;;;;-141.50;100.00;63355.56;5084989;28;20048;-77
2022/03/29 00:47:32;;;;;;;35.30;16.25;;;;;;;-141.50;100.00;63355.56;5068204;28;20085;-77
2022/03/29 00:49:58;;;;;;;36.75;15.98;;;;;;;-141.50;100.00;63355.56;5090240;28;20076;-77
2022/03/29 00:52:25;;;;;;;36.47;15.27;;;;;;;-141.50;100.00;63355.56;5089328;28;20074;-77
2022/03/29 00:54:52;;;;;;;33.30;15.70;;;;;;;-141.50;100.00;63355.56;5088298;28;20415;-78
2022/03/29 00:57:18;;;;;;;40.25;16.30;;;;;;;-141.50;100.00;63355.56;5090431;28;20101;-79
2022/03/29 00:59:46;;;;;;;35.95;15.80;;;;;;;-141.50;100.00;63355.56;5089620;28;20177;-78
2022/03/29 01:02:13;;;;;;;36.65;15.40;;;;;;;-141.50;100.00;63355.56;5070633;28;20043;-76
2022/03/29 01:04:40;;;;;;;44.00;16.65;;;;;;;-141.50;100.00;63355.56;5087521;28;20044;-78
2022/03/29 01:07:07;;;;;;;39.50;15.90;;;;;;;-141.50;100.00;63355.56;5088622;28;20048;-77
2022/03/29 01:09:34;;;;;;;45.35;17.40;;;;;;;-141.50;100.00;63355.56;5089095;28;20102;-76
2022/03/29 01:12:00;;;;;;;37.78;16.88;;;;;;;-141.50;100.00;63355.56;5097365;28;20574;-78
2022/03/29 01:14:28;;;;;;;40.10;16.92;;;;;;;-141.50;100.00;63355.56;5091509;28;20047;-78
2022/03/29 01:19:43;;;;;;;46.72;18.63;;;;;;;-141.50;100.00;63355.56;5109134;28;20104;-78
2022/03/29 01:22:11;;;;;;;37.58;16.90;;;;;;;-141.50;100.00;63355.56;5090715;28;20562;-77
2022/03/29 01:24:43;;;;;;;41.78;17.50;;;;;;;-141.50;100.00;63355.56;5109816;28;20514;-77
2022/03/29 01:27:13;;;;;;;45.35;18.05;;;;;;;-141.50;100.00;63355.56;5106768;28;20088;-78
2022/03/29 01:29:40;;;;;;;48.85;19.52;;;;;;;-141.50;100.00;63355.56;5109018;28;20044;-77
2022/03/29 01:32:09;;;;;;;47.10;19.50;;;;;;;-141.50;100.00;63355.56;5107854;28;20079;-77
2022/03/29 01:34:40;;;;;;;55.17;19.83;;;;;;;-141.50;100.00;63355.56;5109882;28;20105;-76
2022/03/29 01:37:08;;;;;;;49.42;19.20;;;;;;;-141.50;100.00;63355.56;5109838;28;20466;-76
2022/03/29 01:39:36;;;;;;;45.80;19.20;;;;;;;-141.50;100.00;63355.56;5109619;28;20555;-77
2022/03/29 01:42:04;;;;;;;49.83;19.35;;;;;;;-141.50;100.00;63355.56;5111704;28;20075;-77
2022/03/29 01:44:31;;;;;;;47.00;19.38;;;;;;;-141.50;100.00;63355.56;5115705;28;20055;-80
2022/03/29 01:46:57;;;;;;;53.30;19.95;;;;;;;-141.50;100.00;63355.56;5115338;28;20083;-77
2022/03/29 01:49:24;;;;;;;51.20;19.35;;;;;;;-141.50;100.00;63355.56;5114678;28;20089;-76
2022/03/29 01:51:51;;;;;;;52.50;19.80;;;;;;;-141.50;100.00;63355.56;5111441;28;20079;-76
2022/03/29 01:54:18;;;;;;;52.80;20.02;;;;;;;-141.50;100.00;63355.56;5115573;28;20047;-79
2022/03/29 01:56:44;;;;;;;47.80;19.45;;;;;;;-141.50;100.00;63355.56;5111825;28;20047;-78
2022/03/29 01:59:14;;;;;;;48.53;18.77;;;;;;;-141.50;100.00;63355.56;5109134;28;20052;-79
2022/03/29 02:01:45;;;;;;;51.15;18.40;;;;;;;-141.50;100.00;63355.56;5109937;28;20055;-77
2022/03/29 02:04:13;;;;;;;44.35;17.92;;;;;;;-141.50;100.00;63355.56;5108133;28;20054;-77
2022/03/29 02:06:40;;;;;;;46.58;18.65;;;;;;;-141.50;100.00;63355.56;5108131;28;20416;-77
2022/03/29 02:09:08;;;;;;;43.42;17.85;;;;;;;-141.50;100.00;63355.56;5108803;28;20479;-78
2022/03/29 02:11:38;;;;;;;54.10;18.17;;;;;;;-141.50;100.00;63355.56;5096019;28;20484;-78
2022/03/29 02:14:04;;;;;;;51.60;18.45;;;;;;;-141.50;100.00;63355.56;5106597;28;20070;-78
2022/03/29 02:16:31;;;;;;;46.25;18.83;;;;;;;-141.50;100.00;63355.56;5090600;28;20127;-78
2022/03/29 02:18:58;;;;;;;51.90;19.25;;;;;;;-141.50;100.00;63355.56;5121008;28;20048;-77
2022/03/29 02:21:24;;;;;;;56.35;20.35;;;;;;;-141.50;100.00;63355.56;5122792;28;20051;-76
2022/03/29 02:23:51;;;;;;;53.30;20.35;;;;;;;-141.50;100.00;63355.56;5100658;28;20056;-75
2022/03/29 02:26:17;;;;;;;50.92;19.83;;;;;;;-141.50;100.00;63355.56;5109112;28;20039;-77
2022/03/29 02:28:44;;;;;;;48.97;19.08;;;;;;;-141.50;100.00;63355.56;5108246;28;20054;-78
2022/03/29 02:31:11;;;;;;;49.97;20.75;;;;;;;-141.50;100.00;63355.56;5089102;28;20090;-77
2022/03/29 02:33:37;;;;;;;54.53;20.67;;;;;;;-141.50;100.00;63355.56;5107641;28;20047;-77
2022/03/29 02:36:04;;;;;;;53.65;19.98;;;;;;;-141.50;100.00;63355.56;5108392;28;20641;-78
2022/03/29 02:38:31;;;;;;;53.55;21.30;;;;;;;-141.50;100.00;63355.56;5108587;28;20100;-77
2022/03/29 02:40:58;;;;;;;57.42;21.75;;;;;;;-141.50;100.00;63355.56;5107750;28;20043;-77
2022/03/29 02:43:25;;;;;;;55.60;20.13;;;;;;;-141.50;100.00;63355.56;5110813;28;20055;-78
2022/03/29 02:45:52;;;;;;;49.42;20.33;;;;;;;-141.50;100.00;63355.56;5109292;28;20094;-78
2022/03/29 02:48:19;;;;;;;48.92;19.52;;;;;;;-141.50;100.00;63355.56;5117343;28;20055;-77
2022/03/29 02:50:46;;;;;;;48.88;19.15;;;;;;;-141.50;100.00;63355.56;5109932;28;20116;-77
2022/03/29 02:53:15;;;;;;;46.00;19.52;;;;;;;-141.50;100.00;63355.56;5091308;28;20055;-79
2022/03/29 02:55:42;;;;;;;50.22;19.58;;;;;;;-141.50;100.00;63355.56;5112152;28;20062;-77
2022/03/29 02:58:09;;;;;;;54.50;20.33;;;;;;;-141.50;100.00;63355.56;5111609;28;20233;-78
2022/03/29 03:00:36;;;;;;;49.67;20.85;;;;;;;-141.50;100.00;63355.56;5111704;28;20071;-79
2022/03/29 03:03:03;;;;;;;56.75;21.20;;;;;;;-141.50;100.00;63355.56;5113711;28;20055;-79
2022/03/29 03:05:30;;;;;;;54.65;21.15;;;;;;;-141.50;100.00;63355.56;5114488;28;20093;-79
2022/03/29 03:07:57;;;;;;;58.20;22.50;;;;;;;-141.50;100.00;63355.56;5115166;28;20044;-79
2022/03/29 03:10:25;;;;;;;64.47;22.17;;;;;;;-141.50;100.00;63355.56;5111086;28;20066;-75
2022/03/29 03:12:57;;;;;;;57.55;22.73;;;;;;;-141.50;100.00;63355.56;5103067;28;20504;-78
2022/03/29 03:15:25;;;;;;;58.60;22.73;;;;;;;-141.50;100.00;63355.56;5111407;28;20500;-78
2022/03/29 03:17:53;;;;;;;60.40;22.30;;;;;;;-141.50;100.00;63355.56;5111634;28;20047;-76
2022/03/29 03:20:21;;;;;;;61.50;22.85;;;;;;;-141.50;100.00;63355.56;5113675;28;20097;-78
2022/03/29 03:22:49;;;;;;;59.65;22.98;;;;;;;-141.50;100.00;63355.56;5093669;28;20056;-78
2022/03/29 03:25:17;;;;;;;57.03;22.63;;;;;;;-141.50;100.00;63355.56;5110978;28;20483;-78
2022/03/29 03:27:43;;;;;;;67.25;24.85;;;;;;;-141.50;100.00;63355.56;5093195;28;20181;-76
2022/03/29 03:30:13;;;;;;;61.45;24.23;;;;;;;-141.50;100.00;63355.56;5102013;28;20083;-78
2022/03/29 03:32:41;;;;;;;61.42;23.50;;;;;;;-141.50;100.00;63355.56;5089310;28;20135;-78
2022/03/29 03:35:08;;;;;;;57.28;24.17;;;;;;;-141.50;100.00;63355.56;5091607;28;20048;-78
2022/03/29 03:37:35;;;;;;;64.55;24.58;;;;;;;-141.50;100.00;63355.56;5089966;28;20568;-77
2022/03/29 03:40:07;;;;;;;68.97;25.35;;;;;;;-141.50;100.00;63355.56;5091769;28;20098;-78
2022/03/29 03:42:35;;;;;;;63.85;25.02;;;;;;;-141.50;100.00;63355.56;5090182;28;20455;-76
2022/03/29 03:45:04;;;;;;;67.80;25.90;;;;;;;-141.50;100.00;63355.56;5072017;28;20078;-80
2022/03/29 03:47:31;;;;;;;75.57;27.20;;;;;;;-141.50;100.00;63355.56;5092636;28;20143;-78
2022/03/29 03:49:58;;;;;;;66.07;24.92;;;;;;;-141.50;100.00;63355.56;5092745;28;20044;-78
2022/03/29 03:52:24;;;;;;;61.97;25.42;;;;;;;-141.50;100.00;63355.56;5088869;28;20087;-78
2022/03/29 03:54:52;;;;;;;74.78;26.75;;;;;;;-141.50;100.00;63355.56;5093771;28;20140;-77
2022/03/29 03:57:19;;;;;;;78.38;26.95;;;;;;;-141.50;100.00;63355.56;5092222;28;20044;-80
2022/03/29 03:59:48;;;;;;;73.15;27.05;;;;;;;-141.50;100.00;63355.56;5074132;28;20098;-79
2022/03/29 04:02:14;;;;;;;74.80;28.38;;;;;;;-141.50;100.00;63355.56;5083866;28;20125;-79
2022/03/29 04:04:41;;;;;;;75.53;28.38;;;;;;;-141.50;100.00;63355.56;5083083;28;20062;-79
2022/03/29 04:07:08;;;;;;;76.50;28.27;;;;;;;-141.50;100.00;63355.56;5073640;28;20121;-78
2022/03/29 04:09:38;;;;;;;76.15;27.65;;;;;;;-141.50;100.00;63355.56;5073953;28;20139;-76
2022/03/29 04:12:06;;;;;;;73.25;26.90;;;;;;;-141.50;100.00;63355.56;5098563;28;20052;-77
2022/03/29 04:14:32;;;;;;;84.00;29.30;;;;;;;-141.50;100.00;63355.56;5111173;28;20291;-77
2022/03/29 04:16:59;;;;;;;77.28;28.95;;;;;;;-141.50;100.00;63355.56;5110895;28;20260;-77
2022/03/29 04:19:25;;;;;;;79.80;28.80;;;;;;;-141.50;100.00;63355.56;5110032;28;20233;-78
2022/03/29 04:21:52;;;;;;;75.47;28.00;;;;;;;-141.50;100.00;63355.56;5111163;28;20149;-77
2022/03/29 04:24:19;;;;;;;86.20;29.52;;;;;;;-141.50;100.00;63355.56;5073410;28;20121;-77
2022/03/29 04:26:47;;;;;;;81.32;28.75;;;;;;;-141.50;100.00;63355.56;5071562;28;20089;-79
2022/03/29 04:29:13;;;;;;;84.93;29.55;;;;;;;-141.50;100.00;63355.56;5072635;28;20492;-78
2022/03/29 04:31:40;;;;;;;85.10;29.60;;;;;;;-141.50;100.00;63355.56;5070186;28;20053;-77
2022/03/29 04:34:07;;;;;;;86.60;29.90;;;;;;;-141.50;100.00;63355.56;5070766;28;20053;-77
2022/03/29 04:36:33;;;;;;;80.05;29.15;;;;;;;-141.50;100.00;63355.56;5085445;28;20071;-77
2022/03/29 04:39:00;;;;;;;78.13;28.00;;;;;;;-141.50;100.00;63355.56;5090904;28;20048;-77
2022/03/29 04:41:27;;;;;;;76.25;29.80;;;;;;;-141.50;100.00;63355.56;5071625;28;20052;-77
2022/03/29 04:43:56;;;;;;;68.65;25.20;;;;;;;-141.50;100.00;63355.56;5089550;28;20059;-78
2022/03/29 04:46:23;;;;;;;81.75;27.35;;;;;;;-141.50;100.00;63355.56;5088667;28;20109;-77
2022/03/29 04:48:54;;;;;;;71.13;24.98;;;;;;;-141.50;100.00;63355.56;5086447;28;20101;-78
2022/03/29 04:51:20;;;;;;;67.97;25.08;;;;;;;-141.50;100.00;63355.56;5088959;28;20048;-78
2022/03/29 04:53:47;;;;;;;75.35;25.73;;;;;;;-141.50;100.00;63355.56;5086400;28;20427;-78
2022/03/29 04:56:13;;;;;;;70.53;26.92;;;;;;;-141.50;100.00;63355.56;5100119;28;20190;-78
2022/03/29 04:58:40;;;;;;;74.72;26.60;;;;;;;-141.50;100.00;63355.56;5094545;28;20078;-76
2022/03/29 05:01:07;;;;;;;73.97;26.30;;;;;;;-141.50;100.00;63355.56;5094329;28;20047;-79
2022/03/29 05:03:34;;;;;;;79.10;26.77;;;;;;;-141.50;100.00;63355.56;5098363;28;20044;-77
2022/03/29 05:06:01;;;;;;;75.55;28.23;;;;;;;-141.50;100.00;63355.56;5088659;28;20073;-79
2022/03/29 05:08:28;;;;;;;78.93;26.60;;;;;;;-141.50;100.00;63355.56;5091199;28;20071;-76
2022/03/29 05:10:55;;;;;;;71.10;26.52;;;;;;;-141.50;100.00;63355.56;5092106;28;20055;-76
2022/03/29 05:13:21;;;;;;;79.10;29.48;;;;;;;-141.50;100.00;63355.56;5105722;28;20071;-77
2022/03/29 05:15:48;;;;;;;71.57;28.27;;;;;;;-141.50;100.00;63355.56;5092051;28;20364;-77
2022/03/29 05:18:15;;;;;;;83.05;28.00;;;;;;;-141.50;100.00;63355.56;5093916;28;20474;-78
2022/03/29 05:20:41;;;;;;;74.40;28.27;;;;;;;-141.50;100.00;63355.56;5087693;28;20052;-79
2022/03/29 05:23:08;;;;;;;74.28;26.30;;;;;;;-141.50;100.00;63355.56;5089223;28;20074;-78
2022/03/29 05:25:35;;;;;;;70.72;26.67;;;;;;;-141.50;100.00;63355.56;5089338;28;20044;-78
2022/03/29 05:28:02;;;;;;;72.95;25.70;;;;;;;-141.50;100.00;63355.56;5088944;28;20043;-78
2022/03/29 05:30:29;;;;;;;65.50;25.38;;;;;;;-141.50;100.00;63355.56;5088435;28;20129;-78
2022/03/29 05:33:00;;;;;;;68.38;25.10;;;;;;;-141.50;100.00;63355.56;5088146;28;20447;-78
2022/03/29 05:35:30;;;;;;;71.20;26.10;;;;;;;-141.50;100.00;63355.56;5101083;28;20044;-79
2022/03/29 05:38:00;;;;;;;81.25;24.30;;;;;;;-141.50;100.00;63355.56;5086966;28;20036;-79
2022/03/29 05:40:28;;;;;;;80.07;28.20;;;;;;;-141.50;100.00;63355.56;5083913;28;20208;-79
2022/03/29 05:42:55;;;;;;;65.38;26.23;;;;;;;-141.50;100.00;63355.56;5098680;28;20048;-79
2022/03/29 05:45:22;;;;;;;72.07;26.73;;;;;;;-141.50;100.00;63355.56;5081889;28;20083;-78
2022/03/29 05:50:34;;;;;;;79.00;27.88;;;;;;;-141.50;100.00;63355.56;5083895;28;20075;-78
2022/03/29 05:53:02;;;;;;;74.45;27.83;;;;;;;-141.50;100.00;63355.56;5095265;28;20442;-77
2022/03/29 05:55:28;;;;;;;80.80;29.23;;;;;;;-141.50;100.00;63355.56;5072265;28;20135;-78
2022/03/29 05:57:55;;;;;;;77.57;29.00;;;;;;;-141.50;100.00;63355.56;5085816;28;20408;-77
2022/03/29 06:00:26;;;;;;;79.90;30.20;;;;;;;-141.50;100.00;63355.56;5084748;28;20071;-78
2022/03/29 06:02:53;;;;;;;76.78;28.55;;;;;;;-141.50;100.00;63355.56;5088904;28;20109;-80
2022/03/29 06:05:20;;;;;;;81.30;29.08;;;;;;;-141.50;100.00;63355.56;5086104;28;20055;-77
2022/03/29 06:07:47;;;;;;;80.38;30.13;;;;;;;-141.50;100.00;63355.56;5084866;28;20078;-80
2022/03/29 06:10:14;;;;;;;82.47;30.65;;;;;;;-141.50;100.00;63355.56;5088328;28;20569;-80
2022/03/29 06:12:45;;;;;;;77.25;30.67;;;;;;;-141.50;100.00;63355.56;5094030;28;20055;-78
2022/03/29 06:15:12;;;;;;;90.85;33.78;;;;;;;-141.50;100.00;63355.56;5078292;28;20543;-78
2022/03/29 06:17:40;;;;;;;89.45;36.10;;;;;;;-141.50;100.00;63355.56;5075826;28;20462;-79
2022/03/29 06:20:09;;;;;;;99.88;35.50;;;;;;;-141.50;100.00;63355.56;5095186;28;20048;-77
2022/03/29 06:22:38;;;;;;;97.90;38.72;;;;;;;-141.50;100.00;63355.56;5091304;28;20044;-80
2022/03/29 06:25:06;;;;;;;94.95;37.47;;;;;;;-141.50;100.00;63355.56;5088682;28;20063;-79
2022/03/29 06:27:33;;;;;;;104.07;38.75;;;;;;;-141.50;100.00;63355.56;5091078;28;20127;-79
2022/03/29 06:29:59;;;;;;;101.93;38.15;;;;;;;-141.50;100.00;63355.56;5089493;28;20076;-79
2022/03/29 06:32:26;;;;;;;99.57;39.47;;;;;;;-141.50;100.00;63355.56;5096857;28;20071;-78
2022/03/29 06:34:52;;;;;;;102.95;39.33;;;;;;;-141.50;100.00;63355.56;5105265;28;20105;-76
2022/03/29 06:37:19;;;;;;;103.22;38.72;;;;;;;-141.50;100.00;63355.56;5092456;28;20094;-77
2022/03/29 06:39:45;;;;;;;105.85;40.90;;;;;;;-141.50;100.00;63355.56;5113571;28;20067;-78
2022/03/29 06:42:12;;;;;;;109.07;41.70;;;;;;;-141.50;100.00;63355.56;5113571;28;20094;-77
2022/03/29 06:44:39;;;;;;;111.72;41.33;;;;;;;-141.50;100.00;63355.56;5111432;28;20119;-77
2022/03/29 06:47:06;;;;;;;123.38;44.35;;;;;;;-141.50;100.00;63355.56;5111752;28;20047;-78
2022/03/29 06:49:32;;;;;;;113.88;42.97;;;;;;;-141.50;100.00;63355.56;5120369;28;20059;-79
2022/03/29 06:51:59;;;;;;;126.45;46.95;;;;;;;-141.50;100.00;63355.56;5085613;28;20139;-79
2022/03/29 06:54:26;;;;;;;133.20;46.15;;;;;;;-141.50;100.00;63355.56;5099395;28;20328;-78
2022/03/29 06:56:53;;;;;;;136.73;46.20;;;;;;;-141.50;100.00;63355.56;5091379;28;20059;-77
2022/03/29 06:59:20;;;;;;;130.48;47.33;;;;;;;-141.50;100.00;63355.56;5090400;28;20150;-81
2022/03/29 07:01:46;;;;;;;137.13;46.40;;;;;;;-141.50;100.00;63355.56;5070455;28;20051;-78
2022/03/29 07:04:13;;;;;;;129.10;46.40;;;;;;;-141.50;100.00;63355.56;5096108;28;20079;-80
2022/03/29 07:06:43;;;;;;;151.20;52.83;;;;;;;-141.50;100.00;63355.56;5091383;28;20048;-79
2022/03/29 07:12:02;;;;;;;147.13;52.53;;;;;;;-141.50;100.00;63355.56;5094802;28;20397;-78
2022/03/29 07:14:28;;;;;;;155.30;53.80;;;;;;;-141.50;100.00;63355.56;5099802;28;20039;-78
2022/03/29 07:16:55;;;;;;;164.20;56.95;;;;;;;-141.50;100.00;63355.56;5115743;28;20051;-77
2022/03/29 07:19:23;;;;;;;162.32;53.95;;;;;;;-141.50;100.00;63355.56;5095158;28;20058;-79
2022/03/29 07:21:50;;;;;;;187.77;59.22;;;;;;;-141.50;100.00;63355.56;5092412;28;20126;-78
2022/03/29 07:24:16;;;;;;;191.18;62.60;;;;;;;-141.50;100.00;63355.56;5092509;28;20048;-79
2022/03/29 07:26:44;;;;;;;183.98;62.33;;;;;;;-141.50;100.00;63355.56;5076045;28;20056;-79
2022/03/29 07:29:16;;;;;;;192.45;63.85;;;;;;;-141.50;100.00;63355.56;5091250;28;20052;-78
2022/03/29 07:31:42;;;;;;;182.05;59.05;;;;;;;-141.50;100.00;63355.56;5111549;28;20315;-79
2022/03/29 07:34:09;;;;;;;167.75;58.28;;;;;;;-141.50;100.00;63355.56;5114614;28;20111;-79
2022/03/29 07:36:36;;;;;;;176.85;60.60;;;;;;;-141.50;100.00;63355.56;5115537;28;20047;-77
2022/03/29 07:39:03;;;;;;;178.52;61.05;;;;;;;-141.50;100.00;63355.56;5108517;28;20059;-78
2022/03/29 07:41:30;;;;;;;182.65;63.10;;;;;;;-141.50;100.00;63355.56;5089403;28;20577;-77
2022/03/29 07:43:57;;;;;;;176.20;60.53;;;;;;;-141.50;100.00;63355.56;5090068;28;20139;-78
2022/03/29 07:46:24;;;;;;;184.23;62.88;;;;;;;-141.50;100.00;63355.56;5091151;28;20055;-77
2022/03/29 07:48:50;;;;;;;194.98;66.82;;;;;;;-141.50;100.00;63355.56;5092303;28;20119;-78
2022/03/29 07:51:38;;;;;;;178.05;62.45;;;;;;;-141.50;100.00;63355.56;5100232;28;20174;-78
2022/03/29 07:54:05;;;;;;;143.18;54.60;;;;;;;-141.50;100.00;63355.56;5091986;28;20052;-78
2022/03/29 07:56:32;;;;;;;143.10;56.75;;;;;;;-141.50;100.00;63355.56;5092196;28;20043;-77
2022/03/29 07:58:59;;;;;;;152.63;58.65;;;;;;;-141.50;100.00;63355.56;5089659;28;20055;-78
2022/03/29 08:01:26;;;;;;;149.73;59.97;;;;;;;-141.50;100.00;63355.56;5089342;28;20130;-78
2022/03/29 08:03:52;;;;;;;177.60;65.20;;;;;;;-141.50;100.00;63355.56;5089617;28;20048;-78
2022/03/29 08:06:19;;;;;;;155.43;61.47;;;;;;;-141.50;100.00;63355.56;5090541;28;20131;-78
2022/03/29 08:08:46;;;;;;;140.90;58.08;;;;;;;-141.50;100.00;63355.56;5091924;28;20134;-78
2022/03/29 08:11:12;;;;;;;123.35;52.90;;;;;;;-141.50;100.00;63355.56;5097936;28;20078;-77
2022/03/29 08:13:39;;;;;;;113.13;50.55;;;;;;;-141.50;100.00;63355.56;5086798;28;20088;-79
2022/03/29 08:16:06;;;;;;;98.53;45.00;;;;;;;-141.50;100.00;63355.56;5112360;28;20089;-79
2022/03/29 08:18:35;;;;;;;101.88;46.20;;;;;;;-141.50;100.00;63355.56;5110950;28;20051;-77
2022/03/29 08:21:03;;;;;;;94.28;43.90;;;;;;;-141.50;100.00;63355.56;5090669;28;20048;-80
2022/03/29 08:23:30;;;;;;;92.95;42.85;;;;;;;-141.50;100.00;63355.56;5094524;28;20110;-77
2022/03/29 08:25:56;;;;;;;101.55;44.40;;;;;;;-141.50;100.00;63355.56;5092416;28;20094;-79
2022/03/29 08:28:23;;;;;;;97.43;45.55;;;;;;;-141.50;100.00;63355.56;5090075;28;20105;-78
2022/03/29 08:30:50;;;;;;;99.07;44.05;;;;;;;-141.50;100.00;63355.56;5087916;28;20492;-78
2022/03/29 08:33:19;;;;;;;94.63;43.67;;;;;;;-141.50;100.00;63355.56;5086714;28;20083;-80
2022/03/29 08:35:45;;;;;;;95.00;44.22;;;;;;;-141.50;100.00;63355.56;5089836;28;20055;-78
2022/03/29 08:38:12;;;;;;;96.10;46.15;;;;;;;-141.50;100.00;63355.56;5092673;28;20381;-77
2022/03/29 08:40:57;;;;;;;100.32;46.13;;;;;;;-141.50;100.00;63355.56;5089987;28;20056;-77
2022/03/29 08:43:29;;;;;;;101.25;46.67;;;;;;;-141.50;100.00;63355.56;5088538;28;20127;-77
2022/03/29 08:45:57;;;;;;;107.93;49.22;;;;;;;-141.50;100.00;63355.56;5088095;28;20185;-77
2022/03/29 08:48:29;;;;;;;103.85;48.67;;;;;;;-141.50;100.00;63355.56;5087996;28;20068;-76
2022/03/29 08:50:58;;;;;;;111.15;51.53;;;;;;;-141.50;100.00;63355.56;5088865;28;20097;-78
2022/03/29 08:53:48;;;;;;;110.30;49.72;;;;;;;-141.50;100.00;63355.56;5088030;28;20102;-77
2022/03/29 08:56:15;;;;;;;110.15;51.92;;;;;;;-141.50;100.00;63355.56;5089882;28;20401;-76
2022/03/29 08:58:41;;;;;;;97.82;47.40;;;;;;;-141.50;100.00;63355.56;5088875;28;20054;-78
2022/03/29 09:01:08;;;;;;;100.28;48.10;;;;;;;-141.50;100.00;63355.56;5087816;28;20059;-77
2022/03/29 09:03:35;;;;;;;85.32;38.90;;;;;;;-141.50;100.00;63355.56;5089035;28;20056;-78
2022/03/29 09:06:07;;;;;;;85.93;40.50;;;;;;;-141.50;100.00;63355.56;5088960;28;20047;-79
2022/03/29 09:08:46;;;;;;;81.50;38.25;;;;;;;-141.50;100.00;63355.56;5089816;28;20479;-78
2022/03/29 09:11:14;;;;;;;82.68;40.40;;;;;;;-141.50;100.00;63355.56;5094419;28;20101;-76
2022/03/29 09:13:41;;;;;;;87.28;39.58;;;;;;;-141.50;100.00;63355.56;5095464;28;20044;-77
2022/03/29 09:16:27;;;;;;;90.35;39.60;;;;;;;-141.50;100.00;63355.56;5111659;28;20051;-78
2022/03/29 09:18:55;;;;;;;91.07;42.28;;;;;;;-141.50;100.00;63355.56;5100018;28;20127;-79
2022/03/29 09:21:24;;;;;;;92.65;43.65;;;;;;;-141.50;100.00;63355.56;5073102;28;20132;-80
2022/03/29 09:24:06;;;;;;;102.50;45.33;;;;;;;-141.50;100.00;63355.56;5090717;28;20059;-80
2022/03/29 09:26:37;;;;;;;99.07;45.22;;;;;;;-141.50;100.00;63355.56;5108220;28;20097;-78
2022/03/29 09:29:12;;;;;;;98.50;44.97;;;;;;;-141.50;100.00;63355.56;5102571;28;20121;-78
2022/03/29 09:31:39;;;;;;;100.25;43.80;;;;;;;-141.50;100.00;63355.56;5089948;28;20082;-78
2022/03/29 09:34:18;;;;;;;95.50;43.40;;;;;;;-141.50;100.00;63355.56;5096784;28;20427;-78
2022/03/29 09:36:50;;;;;;;104.55;45.92;;;;;;;-141.50;100.00;63355.56;5093443;28;20471;-78
2022/03/29 09:39:40;;;;;;;117.22;49.60;;;;;;;-141.50;100.00;63355.56;5090777;28;20684;-79
2022/03/29 09:42:14;;;;;;;116.50;50.30;;;;;;;-141.50;100.00;63355.56;5082671;28;20086;-79
2022/03/29 09:44:43;;;;;;;102.75;46.17;;;;;;;-141.50;100.00;63355.56;5082246;28;20052;-79
2022/03/29 09:47:13;;;;;;;119.97;53.08;;;;;;;-141.50;100.00;63355.56;5089003;28;20105;-79
2022/03/29 09:49:54;;;;;;;127.88;55.22;;;;;;;-141.50;100.00;63355.56;5089268;28;20073;-78
2022/03/29 09:52:23;;;;;;;132.32;52.80;;;;;;;-141.50;100.00;63355.56;5094145;28;20052;-77
2022/03/29 09:55:15;;;;;;;122.15;52.92;;;;;;;-141.50;100.00;63355.56;5101534;28;20134;-79
2022/03/29 09:57:57;;;;;;;126.72;53.10;;;;;;;-141.50;100.00;63355.56;5095036;28;20044;-81
2022/03/29 10:00:24;;;;;;;121.10;51.45;;;;;;;-141.50;100.00;63355.56;5100382;28;20056;-82
2022/03/29 10:02:54;;;;;;;115.93;48.83;;;;;;;-141.50;100.00;63355.56;5071480;28;20048;-80
2022/03/29 10:05:23;;;;;;;125.32;50.85;;;;;;;-141.50;100.00;63355.56;5090540;28;20055;-77
2022/03/29 10:10:53;;;;;;;116.38;49.85;;;;;;;-141.50;100.00;63355.56;5095259;28;20083;-78
2022/03/29 10:13:23;;;;;;;121.03;49.95;;;;;;;-141.50;100.00;63355.56;5101753;28;20083;-80
2022/03/29 10:15:53;;;;;;;126.78;51.05;;;;;;;-141.50;100.00;63355.56;5110493;28;20138;-79
2022/03/29 10:18:23;;;;;;;119.93;51.38;;;;;;;-141.50;100.00;63355.56;5107222;28;20051;-80
2022/03/29 10:20:52;;;;;;;117.72;50.55;;;;;;;-141.50;100.00;63355.56;5099191;28;20048;-78
2022/03/29 10:23:22;;;;;;;118.22;49.75;;;;;;;-141.50;100.00;63355.56;5100401;28;20051;-78
2022/03/29 10:25:51;;;;;;;126.10;51.47;;;;;;;-141.50;100.00;63355.56;5092261;28;20145;-79
2022/03/29 10:28:20;;;;;;;133.20;50.90;;;;;;;-141.50;100.00;63355.56;5086295;28;20052;-78
2022/03/29 10:30:47;;;;;;;138.23;55.80;;;;;;;-141.50;100.00;63355.56;5085721;28;20048;-78
2022/03/29 10:33:20;;;;;;;137.38;56.30;;;;;;;-141.50;100.00;63355.56;5084133;28;20067;-78
2022/03/29 10:36:02;;;;;;;144.32;56.72;;;;;;;-141.50;100.00;63355.56;5082473;28;20111;-76
2022/03/29 10:38:47;;;;;;;151.90;58.92;;;;;;;-141.50;100.00;63355.56;5083521;28;20504;-80
2022/03/29 10:41:25;;;;;;;148.02;57.50;;;;;;;-141.50;100.00;63355.56;5087137;28;20102;-84
2022/03/29 10:44:08;;;;;;;151.02;59.45;;;;;;;-141.50;100.00;63355.56;5081472;28;20454;-79
2022/03/29 10:46:39;;;;;;;147.70;57.45;;;;;;;-141.50;100.00;63355.56;5073099;28;20070;-79
2022/03/29 10:49:20;;;;;;;153.27;58.83;;;;;;;-141.50;100.00;63355.56;5077900;28;20076;-80
2022/03/29 10:51:57;;;;;;;147.82;58.25;;;;;;;-141.50;100.00;63355.56;5081230;28;20044;-80
2022/03/29 10:54:40;;;;;;;142.60;55.97;;;;;;;-141.50;100.00;63355.56;5086356;28;20071;-81
2022/03/29 10:57:24;;;;;;;143.05;56.33;;;;;;;-141.50;100.00;63355.56;5085804;28;20051;-79
2022/03/29 11:00:07;;;;;;;137.70;55.53;;;;;;;-141.50;100.00;63355.56;5088979;28;20410;-78
2022/03/29 11:02:33;;;;;;;148.90;59.55;;;;;;;-141.50;100.00;63355.56;5080690;28;20043;-80
2022/03/29 11:05:03;;;;;;;148.45;60.90;;;;;;;-141.50;100.00;63355.56;5089887;28;20525;-80
2022/03/29 11:07:32;;;;;;;147.35;60.20;;;;;;;-141.50;100.00;63355.56;5081928;28;20127;-80
2022/03/29 11:10:12;;;;;;;134.07;57.03;;;;;;;-141.50;100.00;63355.56;5065785;28;20040;-78